createdAt,value
2018-03-23T00:00:40.709Z,82.00
2018-03-23T00:03:09.163Z,91.13
2018-03-23T00:05:37.541Z,91.57
2018-03-23T00:08:06.692Z,94.97
2018-03-23T00:10:35.103Z,81.37
2018-03-23T00:13:03.501Z,86.40
2018-03-23T00:15:33.704Z,81.97
2018-03-23T00:18:02.288Z,67.93
2018-03-23T00:20:30.803Z,68.50
2018-03-23T00:22:59.176Z,68.77
2018-03-23T00:25:28.341Z,68.13
2018-03-23T00:27:56.616Z,66.27
2018-03-23T00:30:25.132Z,68.17
2018-03-23T00:32:53.463Z,65.32
2018-03-23T00:35:22.034Z,61.57
2018-03-23T00:37:50.446Z,62.53
2018-03-23T00:40:18.783Z,52.00
2018-03-23T00:42:47.098Z,72.67
2018-03-23T00:45:16.427Z,61.22
2018-03-23T00:47:44.702Z,64.23
2018-03-23T00:50:12.986Z,62.47
2018-03-23T00:52:41.298Z,53.80
2018-03-23T00:55:09.564Z,53.13
2018-03-23T00:57:37.902Z,57.27
2018-03-23T01:00:06.942Z,50.03
2018-03-23T01:02:35.407Z,61.90
2018-03-23T01:05:03.708Z,61.92
2018-03-23T01:07:32.039Z,56.50
2018-03-23T01:10:00.428Z,52.57
2018-03-23T01:12:28.872Z,53.63
2018-03-23T01:14:57.259Z,49.03
2018-03-23T01:17:26.328Z,58.50
2018-03-23T01:19:54.773Z,51.13
2018-03-23T01:22:23.191Z,51.53
2018-03-23T01:24:51.708Z,52.43
2018-03-23T01:27:20.267Z,59.80
2018-03-23T01:29:49.553Z,39.58
2018-03-23T01:32:17.862Z,58.20
2018-03-23T01:34:46.313Z,47.42
2018-03-23T01:37:15.534Z,43.43
2018-03-23T01:39:44.598Z,44.13
2018-03-23T01:42:12.964Z,45.25
2018-03-23T01:44:41.276Z,49.90
2018-03-23T01:47:10.347Z,44.83
2018-03-23T01:49:38.658Z,47.23
2018-03-23T01:52:07.832Z,46.33
2018-03-23T01:54:36.181Z,44.77
2018-03-23T01:57:04.721Z,48.70
2018-03-23T01:59:33.133Z,44.28
2018-03-23T02:02:02.593Z,45.83
2018-03-23T02:04:31.838Z,38.83
2018-03-23T02:07:00.223Z,40.20
2018-03-23T02:09:28.532Z,41.08
2018-03-23T02:11:56.822Z,40.50
2018-03-23T02:14:26.778Z,43.83
2018-03-23T02:16:55.105Z,34.37
2018-03-23T02:19:24.259Z,36.80
2018-03-23T02:21:52.589Z,29.40
2018-03-23T02:24:21.665Z,39.20
2018-03-23T02:26:50.064Z,41.37
2018-03-23T02:29:19.224Z,40.60
2018-03-23T02:31:48.388Z,45.83
2018-03-23T02:34:16.654Z,46.40
2018-03-23T02:36:44.933Z,37.50
2018-03-23T02:39:13.263Z,39.53
2018-03-23T02:41:41.556Z,38.63
2018-03-23T02:44:10.765Z,34.00
2018-03-23T02:46:40.219Z,45.50
2018-03-23T02:49:08.567Z,43.83
2018-03-23T02:51:36.874Z,37.47
2018-03-23T02:54:05.244Z,50.40
2018-03-23T02:56:33.553Z,39.97
2018-03-23T02:59:02.901Z,44.87
2018-03-23T03:01:31.377Z,43.47
2018-03-23T03:03:59.657Z,39.60
2018-03-23T03:06:28.222Z,44.35
2018-03-23T03:08:56.550Z,47.25
2018-03-23T03:11:25.159Z,48.70
2018-03-23T03:13:54.334Z,46.70
2018-03-23T03:16:22.677Z,49.00
2018-03-23T03:18:50.967Z,53.20
2018-03-23T03:21:19.359Z,53.77
2018-03-23T03:23:47.769Z,54.87
2018-03-23T03:26:16.803Z,68.20
2018-03-23T03:28:45.214Z,52.90
2018-03-23T03:31:13.675Z,55.03
2018-03-23T03:33:42.278Z,55.27
2018-03-23T03:36:10.593Z,51.75
2018-03-23T03:38:39.717Z,63.00
2018-03-23T03:41:08.012Z,63.70
2018-03-23T03:43:36.482Z,54.37
2018-03-23T03:46:04.777Z,51.93
2018-03-23T03:48:33.075Z,56.30
2018-03-23T03:51:01.344Z,59.60
2018-03-23T03:53:29.654Z,55.27
2018-03-23T03:55:57.957Z,61.90
2018-03-23T03:58:26.514Z,65.85
2018-03-23T04:00:54.872Z,64.18
2018-03-23T04:03:23.402Z,144.67
2018-03-23T04:05:51.673Z,77.77
2018-03-23T04:08:19.964Z,59.17
2018-03-23T04:10:48.254Z,64.90
2018-03-23T04:13:16.558Z,69.70
2018-03-23T04:15:45.776Z,59.25
2018-03-23T04:18:14.839Z,70.23
2018-03-23T04:20:43.320Z,65.67
2018-03-23T04:23:11.779Z,66.17
2018-03-23T04:25:40.377Z,66.63
2018-03-23T04:28:08.713Z,62.60
2018-03-23T04:30:37.020Z,67.67
2018-03-23T04:33:05.343Z,76.05
2018-03-23T04:35:34.426Z,72.43
2018-03-23T04:38:03.534Z,70.23
2018-03-23T04:40:31.820Z,74.67
2018-03-23T04:43:00.164Z,74.10
2018-03-23T04:45:28.443Z,79.87
2018-03-23T04:47:56.841Z,75.33
2018-03-23T04:50:25.890Z,83.57
2018-03-23T04:52:54.185Z,68.30
2018-03-23T04:55:22.569Z,86.80
2018-03-23T04:57:50.880Z,82.97
2018-03-23T05:00:19.339Z,87.07
2018-03-23T05:02:48.479Z,91.53
2018-03-23T05:05:16.780Z,91.23
2018-03-23T05:07:45.335Z,97.67
2018-03-23T05:10:13.660Z,88.23
2018-03-23T05:12:42.803Z,106.60
2018-03-23T05:15:11.202Z,103.40
2018-03-23T05:17:39.584Z,93.68
2018-03-23T05:20:07.870Z,104.17
2018-03-23T05:22:36.170Z,110.37
2018-03-23T05:25:05.399Z,96.77
2018-03-23T05:27:34.554Z,115.55
2018-03-23T05:30:03.733Z,114.82
2018-03-23T05:32:32.083Z,123.67
2018-03-23T05:35:00.624Z,113.95
2018-03-23T05:37:29.840Z,128.20
2018-03-23T05:39:58.333Z,139.82
2018-03-23T05:42:26.680Z,135.83
2018-03-23T05:44:55.795Z,128.00
2018-03-23T05:47:24.299Z,140.17
2018-03-23T05:49:52.571Z,133.33
2018-03-23T05:52:22.164Z,142.80
2018-03-23T05:54:50.443Z,129.77
2018-03-23T05:57:19.060Z,121.97
2018-03-23T05:59:47.360Z,133.93
2018-03-23T06:02:15.760Z,159.40
2018-03-23T06:04:45.024Z,137.25
2018-03-23T06:07:13.376Z,131.23
2018-03-23T06:09:41.793Z,134.77
2018-03-23T06:12:10.401Z,150.80
2018-03-23T06:14:38.735Z,142.13
2018-03-23T06:17:07.022Z,150.10
2018-03-23T06:19:35.409Z,143.93
2018-03-23T06:22:04.574Z,139.37
2018-03-23T06:24:32.920Z,134.02
2018-03-23T06:27:01.348Z,148.53
2018-03-23T06:29:30.028Z,143.63
2018-03-23T06:31:58.375Z,129.10
2018-03-23T06:34:26.709Z,129.30
2018-03-23T06:36:55.089Z,119.85
2018-03-23T06:39:23.675Z,144.27
2018-03-23T06:41:53.014Z,136.27
2018-03-23T06:44:21.519Z,130.30
2018-03-23T06:46:49.996Z,136.87
2018-03-23T06:49:18.308Z,124.63
2018-03-23T06:51:46.673Z,123.00
2018-03-23T06:54:15.085Z,138.50
2018-03-23T06:56:44.274Z,114.30
2018-03-23T06:59:13.390Z,118.50
2018-03-23T07:01:41.829Z,118.30
2018-03-23T07:04:10.431Z,117.87
2018-03-23T07:06:39.593Z,105.63
2018-03-23T07:09:07.900Z,103.82
2018-03-23T07:11:37.148Z,103.30
2018-03-23T07:14:05.506Z,92.13
2018-03-23T07:16:33.789Z,96.93
2018-03-23T07:19:02.129Z,93.70
2018-03-23T07:21:31.315Z,103.07
2018-03-23T07:24:00.445Z,107.75
2018-03-23T07:26:28.766Z,92.37
2018-03-23T07:28:57.055Z,97.27
2018-03-23T07:31:25.685Z,91.53
2018-03-23T07:33:54.200Z,97.63
2018-03-23T07:36:22.631Z,89.27
2018-03-23T07:38:51.728Z,89.20
2018-03-23T07:41:20.875Z,89.28
2018-03-23T07:43:49.304Z,85.00
2018-03-23T07:46:18.390Z,87.80
2018-03-23T07:48:47.653Z,83.80
2018-03-23T07:51:16.081Z,67.32
2018-03-23T07:53:45.466Z,83.67
2018-03-23T07:56:13.766Z,73.55
2018-03-23T07:58:42.151Z,72.40
2018-03-23T08:01:10.635Z,74.87
2018-03-23T08:03:40.049Z,69.82
2018-03-23T08:06:08.687Z,63.27
2018-03-23T08:08:37.884Z,62.73
2018-03-23T08:11:06.325Z,64.53
2018-03-23T08:13:34.645Z,58.75
2018-03-23T08:16:04.204Z,56.13
2018-03-23T08:18:32.699Z,57.67
2018-03-23T08:21:01.050Z,60.17
2018-03-23T08:23:29.494Z,67.10
2018-03-23T08:25:58.801Z,62.47
2018-03-23T08:28:28.222Z,63.60
2018-03-23T08:30:57.880Z,63.60
2018-03-23T08:33:27.053Z,59.63
2018-03-23T08:35:55.427Z,64.10
2018-03-23T08:38:23.726Z,56.27
2018-03-23T08:40:52.099Z,55.30
2018-03-23T08:43:20.655Z,53.30
2018-03-23T08:45:49.217Z,56.25
2018-03-23T08:48:17.589Z,54.13
2018-03-23T08:50:45.976Z,51.40
2018-03-23T08:53:14.601Z,53.30
2018-03-23T08:55:42.979Z,49.30
2018-03-23T08:58:11.318Z,47.30
2018-03-23T09:00:40.575Z,42.63
2018-03-23T09:03:08.974Z,45.87
2018-03-23T09:05:38.036Z,40.13
2018-03-23T09:08:06.335Z,44.47
2018-03-23T09:10:35.549Z,44.93
2018-03-23T09:13:04.589Z,37.80
2018-03-23T09:15:32.869Z,43.03
2018-03-23T09:18:01.272Z,39.00
2018-03-23T09:20:29.661Z,45.80
2018-03-23T09:22:58.140Z,39.00
2018-03-23T09:25:27.364Z,42.30
2018-03-23T09:27:55.931Z,47.17
2018-03-23T09:30:24.342Z,42.17
2018-03-23T09:32:53.349Z,44.58
2018-03-23T09:35:21.732Z,38.23
2018-03-23T09:37:50.012Z,43.90
2018-03-23T09:40:18.291Z,38.63
2018-03-23T09:42:46.608Z,48.93
2018-03-23T09:45:15.746Z,38.60
2018-03-23T09:47:44.220Z,39.30
2018-03-23T09:50:12.785Z,46.70
2018-03-23T09:52:41.352Z,42.75
2018-03-23T09:55:10.632Z,40.03
2018-03-23T09:57:39.044Z,40.20
2018-03-23T10:00:07.336Z,36.97
2018-03-23T10:02:36.485Z,41.40
2018-03-23T10:05:04.794Z,39.67
2018-03-23T10:07:33.277Z,41.90
2018-03-23T10:10:01.599Z,34.47
2018-03-23T10:12:30.160Z,38.87
2018-03-23T10:14:58.497Z,31.80
2018-03-23T10:17:27.650Z,40.17
2018-03-23T10:19:55.950Z,34.00
2018-03-23T10:22:24.235Z,35.00
2018-03-23T10:24:53.472Z,36.30
2018-03-23T10:27:21.895Z,29.17
2018-03-23T10:29:50.381Z,37.70
2018-03-23T10:32:19.460Z,35.57
2018-03-23T10:34:48.592Z,25.60
2018-03-23T10:37:17.656Z,33.83
2018-03-23T10:39:45.946Z,27.53
2018-03-23T10:42:15.302Z,25.73
2018-03-23T10:44:43.898Z,21.30
2018-03-23T10:47:12.331Z,23.48
2018-03-23T10:49:40.800Z,29.90
2018-03-23T10:52:09.113Z,25.70
2018-03-23T10:54:37.530Z,26.33
2018-03-23T10:57:05.807Z,29.87
2018-03-23T10:59:34.350Z,22.42
2018-03-23T11:02:07.745Z,25.73
2018-03-23T11:04:36.164Z,26.07
2018-03-23T11:07:04.453Z,25.87
2018-03-23T11:09:32.848Z,28.03
2018-03-23T11:12:01.916Z,25.23
2018-03-23T11:14:30.261Z,30.03
2018-03-23T11:16:58.582Z,26.13
2018-03-23T11:19:27.113Z,22.13
2018-03-23T11:21:55.482Z,28.20
2018-03-23T11:24:23.945Z,35.47
2018-03-23T11:26:52.335Z,27.48
2018-03-23T11:29:20.608Z,20.67
2018-03-23T11:31:48.968Z,27.77
2018-03-23T11:34:18.010Z,28.33
2018-03-23T11:36:46.453Z,24.43
2018-03-23T11:39:16.298Z,22.42
2018-03-23T11:41:44.769Z,24.80
2018-03-23T11:44:13.074Z,25.43
2018-03-23T11:46:41.393Z,27.37
2018-03-23T11:49:10.585Z,30.17
2018-03-23T11:51:39.803Z,22.27
2018-03-23T11:54:08.252Z,28.80
2018-03-23T11:56:36.698Z,29.07
2018-03-23T11:59:05.291Z,26.37
2018-03-23T12:01:33.757Z,30.10
2018-03-23T12:04:02.127Z,27.30
2018-03-23T12:06:30.572Z,25.57
2018-03-23T12:09:00.861Z,25.27
2018-03-23T12:11:29.386Z,26.23
2018-03-23T12:13:57.730Z,33.00
2018-03-23T12:16:26.090Z,24.13
2018-03-23T12:18:54.530Z,33.90
2018-03-23T12:21:22.847Z,30.10
2018-03-23T12:23:51.288Z,27.47
2018-03-23T12:26:19.857Z,27.20
2018-03-23T12:28:48.176Z,27.57
2018-03-23T12:31:16.609Z,24.33
2018-03-23T12:33:45.686Z,27.87
2018-03-23T12:36:14.771Z,32.42
2018-03-23T12:38:43.170Z,27.15
2018-03-23T12:41:12.267Z,27.83
2018-03-23T12:43:41.415Z,28.13
2018-03-23T12:46:09.753Z,28.30
2018-03-23T12:48:38.097Z,26.97
2018-03-23T12:51:06.427Z,29.00
2018-03-23T12:53:34.828Z,31.60
2018-03-23T12:56:03.312Z,32.58
2018-03-23T12:58:31.777Z,29.60
2018-03-23T13:01:00.181Z,33.80
2018-03-23T13:03:28.698Z,30.15
2018-03-23T13:05:58.034Z,35.10
2018-03-23T13:08:26.526Z,38.03
2018-03-23T13:10:56.041Z,37.17
2018-03-23T13:13:24.501Z,38.73
2018-03-23T13:15:53.186Z,34.10
2018-03-23T13:18:21.538Z,32.47
2018-03-23T13:20:50.110Z,34.43
2018-03-23T13:23:19.344Z,37.40
2018-03-23T13:25:47.779Z,38.07
2018-03-23T13:28:16.882Z,39.70
2018-03-23T13:30:45.271Z,36.75
2018-03-23T13:33:13.655Z,38.13
2018-03-23T13:35:41.942Z,36.30
2018-03-23T13:38:10.627Z,33.03
2018-03-23T13:40:38.958Z,34.03
2018-03-23T13:43:07.305Z,35.53
2018-03-23T13:45:35.602Z,27.20
2018-03-23T13:48:04.709Z,29.67
2018-03-23T13:50:33.231Z,34.27
2018-03-23T13:53:01.533Z,27.13
2018-03-23T13:55:30.262Z,29.50
2018-03-23T13:57:59.653Z,30.02
2018-03-23T14:00:33.626Z,30.97
2018-03-23T14:03:02.088Z,34.70
2018-03-23T14:05:30.445Z,30.47
2018-03-23T14:07:58.901Z,24.30
2018-03-23T14:10:27.253Z,26.80
2018-03-23T14:12:55.737Z,31.13
2018-03-23T14:15:24.084Z,30.27
2018-03-23T14:17:52.622Z,28.30
2018-03-23T14:20:22.444Z,34.33
2018-03-23T14:22:52.292Z,31.45
2018-03-23T14:25:22.299Z,28.30
2018-03-23T14:27:52.396Z,31.75
2018-03-23T14:30:21.898Z,31.90
2018-03-23T14:32:52.210Z,31.13
2018-03-23T14:35:20.782Z,29.97
2018-03-23T14:37:49.313Z,32.53
2018-03-23T14:40:17.673Z,36.93
2018-03-23T14:42:46.171Z,33.87
2018-03-23T14:45:14.780Z,34.92
2018-03-23T14:47:43.115Z,29.47
2018-03-23T14:50:12.341Z,32.33
2018-03-23T14:52:40.805Z,34.80
2018-03-23T14:55:09.637Z,31.80
2018-03-23T14:57:38.068Z,28.00
2018-03-23T15:00:06.527Z,28.87
2018-03-23T15:02:35.838Z,34.25
2018-03-23T15:05:04.242Z,30.43
2018-03-23T15:10:07.998Z,27.17
2018-03-23T15:12:37.242Z,27.23
2018-03-23T15:15:05.610Z,29.07
2018-03-23T15:17:34.951Z,32.72
2018-03-23T15:20:03.473Z,28.85
2018-03-23T15:22:32.095Z,26.10
2018-03-23T15:25:00.495Z,32.03
2018-03-23T15:27:29.003Z,33.03
2018-03-23T15:29:57.407Z,27.47
2018-03-23T15:32:26.120Z,29.43
2018-03-23T15:34:54.468Z,33.42
2018-03-23T15:37:22.838Z,41.97
2018-03-23T15:39:51.979Z,33.30
2018-03-23T15:42:20.649Z,31.57
2018-03-23T15:44:50.173Z,34.28
2018-03-23T15:47:18.673Z,32.50
2018-03-23T15:49:47.129Z,35.40
2018-03-23T15:52:15.499Z,36.20
2018-03-23T15:54:44.119Z,35.57
2018-03-23T15:57:12.619Z,35.85
2018-03-23T15:59:41.050Z,28.30
2018-03-23T16:02:09.534Z,26.07
2018-03-23T16:04:38.214Z,30.00
2018-03-23T16:07:06.612Z,28.87
2018-03-23T16:09:35.538Z,30.20
2018-03-23T16:12:03.935Z,24.50
2018-03-23T16:14:33.129Z,24.37
2018-03-23T16:17:01.534Z,30.67
2018-03-23T16:19:30.013Z,23.92
2018-03-23T16:21:58.522Z,21.10
2018-03-23T16:24:28.012Z,16.87
2018-03-23T16:26:56.493Z,22.70
2018-03-23T16:29:24.958Z,20.77
2018-03-23T16:31:53.797Z,20.50
2018-03-23T16:34:22.439Z,18.60
2018-03-23T16:36:50.859Z,17.00
2018-03-23T16:39:19.512Z,21.23
2018-03-23T16:41:47.977Z,22.57
2018-03-23T16:44:17.458Z,20.27
2018-03-23T16:46:46.073Z,20.90
2018-03-23T16:49:15.228Z,14.67
2018-03-23T16:51:43.646Z,18.70
2018-03-23T16:54:12.205Z,17.27
2018-03-23T16:56:41.479Z,15.93
2018-03-23T16:59:09.985Z,21.15
2018-03-23T17:01:39.449Z,19.00
2018-03-23T17:04:08.437Z,18.23
2018-03-23T17:06:37.021Z,18.00
2018-03-23T17:09:05.911Z,14.97
2018-03-23T17:11:34.519Z,18.60
2018-03-23T17:14:03.019Z,15.83
2018-03-23T17:16:32.363Z,14.64
2018-03-23T17:19:01.168Z,18.70
2018-03-23T17:21:29.682Z,19.97
2018-03-23T17:23:58.491Z,15.27
2018-03-23T17:26:28.212Z,15.90
2018-03-23T17:28:56.943Z,15.43
2018-03-23T17:31:26.455Z,14.97
2018-03-23T17:33:55.384Z,12.68
2018-03-23T17:36:24.270Z,20.30
2018-03-23T17:38:54.118Z,13.57
2018-03-23T17:41:22.595Z,14.13
2018-03-23T17:43:51.324Z,12.20
2018-03-23T17:46:23.120Z,13.40
2018-03-23T17:48:52.678Z,14.87
2018-03-23T17:51:21.168Z,13.10
2018-03-23T17:53:50.137Z,14.90
2018-03-23T17:56:18.695Z,15.40
2018-03-23T17:58:48.352Z,13.94
2018-03-23T18:01:17.186Z,13.43
2018-03-23T18:03:46.653Z,14.20
2018-03-23T18:06:15.667Z,18.60
2018-03-23T18:08:44.194Z,16.17
2018-03-23T18:11:12.753Z,15.20
2018-03-23T18:13:42.191Z,17.43
2018-03-23T18:16:10.873Z,15.85
2018-03-23T18:18:39.482Z,17.07
2018-03-23T18:21:08.569Z,13.83
2018-03-23T18:23:38.052Z,13.15
2018-03-23T18:26:06.978Z,14.67
2018-03-23T18:28:36.639Z,12.63
2018-03-23T18:31:05.389Z,16.40
2018-03-23T18:33:34.283Z,15.02
2018-03-23T18:36:05.020Z,15.93
2018-03-23T18:38:35.711Z,15.97
2018-03-23T18:41:04.524Z,17.10
2018-03-23T18:43:32.996Z,13.20
2018-03-23T18:46:01.808Z,13.53
2018-03-23T18:48:31.151Z,15.37
2018-03-23T18:51:00.023Z,14.27
2018-03-23T18:53:28.562Z,15.97
2018-03-23T18:55:57.154Z,18.52
2018-03-23T18:58:26.089Z,17.07
2018-03-23T19:00:54.705Z,14.87
2018-03-23T19:03:23.196Z,17.73
2018-03-23T19:05:53.843Z,15.35
2018-03-23T19:08:22.584Z,16.67
2018-03-23T19:10:51.537Z,18.50
2018-03-23T19:13:20.341Z,14.83
2018-03-23T19:15:48.865Z,17.33
2018-03-23T19:18:17.654Z,14.73
2018-03-23T19:20:46.335Z,15.17
2018-03-23T19:23:15.209Z,17.93
2018-03-23T19:25:44.104Z,19.00
2018-03-23T19:28:12.742Z,17.70
2018-03-23T19:30:42.217Z,15.63
2018-03-23T19:33:11.091Z,19.27
2018-03-23T19:35:39.595Z,22.40
2018-03-23T19:38:08.449Z,20.73
2018-03-23T19:40:38.137Z,20.17
2018-03-23T19:43:07.084Z,18.43
2018-03-23T19:45:37.253Z,17.00
2018-03-23T19:48:06.539Z,18.97
2018-03-23T19:50:36.861Z,17.37
2018-03-23T19:53:07.584Z,19.95
2018-03-23T19:55:37.019Z,20.40
2018-03-23T19:58:06.423Z,19.60
2018-03-23T20:00:35.885Z,21.33
2018-03-23T20:03:04.847Z,23.73
2018-03-23T20:05:34.348Z,23.77
2018-03-23T20:08:03.474Z,18.43
2018-03-23T20:10:32.869Z,16.27
2018-03-23T20:13:02.120Z,21.20
2018-03-23T20:15:30.862Z,20.95
2018-03-23T20:21:04.886Z,22.10
2018-03-23T20:23:33.738Z,18.00
2018-03-23T20:26:02.128Z,21.83
2018-03-23T20:28:36.127Z,18.97
2018-03-23T20:31:04.539Z,30.63
2018-03-23T20:33:33.303Z,17.23
2018-03-23T20:36:01.925Z,19.77
2018-03-23T20:38:30.338Z,15.20
2018-03-23T20:40:58.702Z,19.17
2018-03-23T20:43:28.614Z,18.45
2018-03-23T20:45:57.077Z,16.47
2018-03-23T20:48:26.457Z,18.53
2018-03-23T20:50:55.728Z,17.10
2018-03-23T20:53:24.600Z,20.33
2018-03-23T20:55:53.574Z,23.33
2018-03-23T20:58:22.078Z,16.83
2018-03-23T21:00:50.935Z,17.40
2018-03-23T21:03:20.285Z,16.13
2018-03-23T21:05:48.741Z,14.87
2018-03-23T21:08:17.293Z,19.27
2018-03-23T21:10:46.615Z,15.65
2018-03-23T21:13:16.263Z,16.03
2018-03-23T21:15:45.241Z,18.17
2018-03-23T21:18:13.926Z,18.25
2018-03-23T21:20:43.189Z,15.68
2018-03-23T21:23:11.625Z,16.57
2018-03-23T21:25:40.203Z,17.80
2018-03-23T21:28:09.052Z,16.13
2018-03-23T21:30:37.881Z,13.50
2018-03-23T21:33:06.456Z,16.67
2018-03-23T21:35:35.229Z,18.23
2018-03-23T21:38:03.841Z,15.55
2018-03-23T21:40:32.608Z,17.83
2018-03-23T21:43:01.136Z,18.60
2018-03-23T21:45:30.661Z,21.27
2018-03-23T21:47:59.986Z,20.13
2018-03-23T21:50:28.333Z,16.73
2018-03-23T21:52:57.766Z,18.33
2018-03-23T21:55:26.162Z,17.67
2018-03-23T21:57:54.522Z,16.53
2018-03-23T22:00:24.681Z,18.50
2018-03-23T22:02:53.313Z,18.47
2018-03-23T22:05:21.825Z,17.47
2018-03-23T22:07:50.341Z,19.67
2018-03-23T22:10:19.482Z,23.87
2018-03-23T22:12:47.943Z,16.60
2018-03-23T22:15:17.037Z,21.20
2018-03-23T22:17:46.421Z,18.87
2018-03-23T22:20:14.931Z,19.67
2018-03-23T22:22:43.414Z,20.30
2018-03-23T22:25:11.949Z,22.77
2018-03-23T22:27:40.240Z,17.27
2018-03-23T22:30:08.918Z,19.97
2018-03-23T22:32:37.399Z,19.97
2018-03-23T22:35:05.740Z,16.23
2018-03-23T22:37:34.284Z,20.03
2018-03-23T22:40:03.499Z,14.47
2018-03-23T22:42:31.872Z,17.65
2018-03-23T22:45:00.459Z,17.87
2018-03-23T22:47:29.638Z,19.37
2018-03-23T22:49:58.259Z,16.47
2018-03-23T22:52:26.569Z,18.00
2018-03-23T22:54:55.149Z,15.45
2018-03-23T22:57:23.568Z,19.67
2018-03-23T22:59:53.665Z,12.85
2018-03-23T23:02:22.258Z,14.97
2018-03-23T23:04:50.649Z,20.27
2018-03-23T23:07:19.849Z,13.97
2018-03-23T23:09:48.156Z,18.23
2018-03-23T23:12:16.494Z,15.17
2018-03-23T23:14:44.995Z,18.87
2018-03-23T23:17:13.687Z,18.97
2018-03-23T23:19:42.149Z,19.23
2018-03-23T23:22:10.642Z,16.30
2018-03-23T23:24:39.178Z,14.80
2018-03-23T23:27:07.616Z,17.37
2018-03-23T23:29:35.939Z,16.20
2018-03-23T23:32:04.411Z,16.97
2018-03-23T23:34:32.750Z,13.88
2018-03-23T23:37:01.301Z,18.77
2018-03-23T23:39:29.751Z,15.53
2018-03-23T23:41:58.160Z,11.18
2018-03-23T23:44:27.566Z,14.77
2018-03-23T23:46:56.642Z,13.93
2018-03-23T23:49:24.995Z,13.40
2018-03-23T23:51:53.349Z,14.80
2018-03-23T23:54:21.689Z,13.23
2018-03-23T23:56:50.842Z,13.37
2018-03-23T23:59:19.287Z,10.67
